createdAt,value
2019-04-20T00:01:58.152Z,34.30
2019-04-20T00:04:28.799Z,31.80
2019-04-20T00:06:54.807Z,36.23
2019-04-20T00:09:29.056Z,33.27
2019-04-20T00:12:03.902Z,35.10
2019-04-20T00:14:29.633Z,33.03
2019-04-20T00:16:56.850Z,34.97
2019-04-20T00:19:33.675Z,33.27
2019-04-20T00:22:01.900Z,34.00
2019-04-20T00:24:33.939Z,34.07
2019-04-20T00:27:22.402Z,35.13
2019-04-20T00:29:52.377Z,33.70
2019-04-20T00:32:12.466Z,33.40
2019-04-20T00:34:36.543Z,34.33
2019-04-20T00:37:02.349Z,33.87
2019-04-20T00:39:33.941Z,33.53
2019-04-20T00:42:06.590Z,34.47
2019-04-20T00:44:36.213Z,33.20
2019-04-20T00:47:16.989Z,34.37
2019-04-20T00:49:48.424Z,34.57
2019-04-20T00:52:27.677Z,35.50
2019-04-20T00:54:34.887Z,34.07
2019-04-20T00:57:16.775Z,35.00
2019-04-20T00:59:57.192Z,36.20
2019-04-20T01:02:20.746Z,33.53
2019-04-20T01:04:56.460Z,34.80
2019-04-20T01:07:26.327Z,33.83
2019-04-20T01:10:04.662Z,34.57
2019-04-20T01:12:36.813Z,35.43
2019-04-20T01:15:09.436Z,36.00
2019-04-20T01:17:37.778Z,36.07
2019-04-20T01:20:07.179Z,35.43
2019-04-20T01:22:44.363Z,35.37
2019-04-20T01:25:15.140Z,35.30
2019-04-20T01:27:49.697Z,35.77
2019-04-20T01:30:17.450Z,39.27
2019-04-20T01:32:55.379Z,36.53
2019-04-20T01:35:27.215Z,37.47
2019-04-20T01:38:00.181Z,34.27
2019-04-20T01:40:11.692Z,35.67
2019-04-20T01:42:42.562Z,35.93
2019-04-20T01:45:17.852Z,39.13
2019-04-20T01:47:46.171Z,39.73
2019-04-20T01:50:22.119Z,36.03
2019-04-20T01:52:58.049Z,39.73
2019-04-20T01:55:38.657Z,40.73
2019-04-20T02:00:45.227Z,38.67
2019-04-20T02:03:36.884Z,37.93
2019-04-20T02:06:08.470Z,36.40
2019-04-20T02:08:34.238Z,36.33
2019-04-20T02:11:05.833Z,36.73
2019-04-20T02:13:43.675Z,42.03
2019-04-20T02:16:11.459Z,39.03
2019-04-20T02:18:44.097Z,37.37
2019-04-20T02:21:25.922Z,40.73
2019-04-20T02:23:45.749Z,40.37
2019-04-20T02:26:07.039Z,37.97
2019-04-20T02:29:01.974Z,36.67
2019-04-20T02:31:44.556Z,37.57
2019-04-20T02:37:33.358Z,36.90
2019-04-20T02:39:55.896Z,37.33
2019-04-20T02:42:24.873Z,39.63
2019-04-20T02:45:01.072Z,38.93
2019-04-20T02:47:25.330Z,38.13
2019-04-20T02:49:51.807Z,38.07
2019-04-20T02:52:30.318Z,35.07
2019-04-20T02:54:53.551Z,36.00
2019-04-20T02:57:35.969Z,34.20
2019-04-20T03:02:13.011Z,36.40
2019-04-20T03:04:32.648Z,36.13
2019-04-20T03:07:09.063Z,34.27
2019-04-20T03:09:45.716Z,33.77
2019-04-20T03:12:18.732Z,35.73
2019-04-20T03:14:39.697Z,35.97
2019-04-20T03:17:15.268Z,34.30
2019-04-20T03:19:41.133Z,37.27
2019-04-20T03:22:24.645Z,34.40
2019-04-20T03:24:50.021Z,35.47
2019-04-20T03:27:15.737Z,37.03
2019-04-20T03:30:22.856Z,35.67
2019-04-20T03:35:12.054Z,35.50
2019-04-20T03:37:42.691Z,39.63
2019-04-20T03:40:04.402Z,36.37
2019-04-20T03:42:20.077Z,38.43
2019-04-20T03:44:57.928Z,40.30
2019-04-20T03:47:30.373Z,40.70
2019-04-20T03:50:14.794Z,37.80
2019-04-20T03:52:36.432Z,36.47
2019-04-20T03:55:25.916Z,38.83
2019-04-20T03:58:00.125Z,35.90
2019-04-20T04:00:42.544Z,37.03
2019-04-20T04:03:20.253Z,37.20
2019-04-20T04:05:50.921Z,36.33
2019-04-20T04:08:17.070Z,38.60
2019-04-20T04:10:54.732Z,35.90
2019-04-20T04:13:12.018Z,38.87
2019-04-20T04:15:48.382Z,38.27
2019-04-20T04:18:23.019Z,37.67
2019-04-20T04:20:53.282Z,38.40
2019-04-20T04:23:35.676Z,38.70
2019-04-20T04:26:03.527Z,37.97
2019-04-20T04:28:35.235Z,35.47
2019-04-20T04:31:09.427Z,35.87
2019-04-20T04:36:00.629Z,35.93
2019-04-20T04:38:42.344Z,36.00
2019-04-20T04:41:17.073Z,37.50
2019-04-20T04:43:37.303Z,38.17
2019-04-20T04:45:48.987Z,36.13
2019-04-20T04:48:23.864Z,37.33
2019-04-20T04:50:56.299Z,37.20
2019-04-20T04:53:30.281Z,36.37
2019-04-20T04:55:56.505Z,37.13
2019-04-20T04:58:19.623Z,35.03
2019-04-20T05:00:49.319Z,36.00
2019-04-20T05:03:37.345Z,35.97
2019-04-20T05:06:06.654Z,36.93
2019-04-20T05:08:30.434Z,38.30
2019-04-20T05:10:54.044Z,36.87
2019-04-20T05:13:26.790Z,37.07
2019-04-20T05:16:11.076Z,37.50
2019-04-20T05:18:44.823Z,35.33
2019-04-20T05:21:18.816Z,35.77
2019-04-20T05:23:53.371Z,37.80
2019-04-20T05:26:37.520Z,34.17
2019-04-20T05:28:58.985Z,35.53
2019-04-20T05:31:24.512Z,37.17
2019-04-20T05:34:15.729Z,36.20
2019-04-20T05:36:41.427Z,36.60
2019-04-20T05:39:23.835Z,35.83
2019-04-20T05:41:41.968Z,36.40
2019-04-20T05:44:10.144Z,37.20
2019-04-20T05:46:48.229Z,34.37
2019-04-20T05:49:22.072Z,36.67
2019-04-20T05:51:45.999Z,35.60
2019-04-20T05:54:23.509Z,36.10
2019-04-20T05:56:45.863Z,38.60
2019-04-20T05:59:17.240Z,39.13
2019-04-20T06:01:52.791Z,38.63
2019-04-20T06:04:22.477Z,37.67
2019-04-20T06:06:53.548Z,39.63
2019-04-20T06:09:22.724Z,40.10
2019-04-20T06:12:02.737Z,41.90
2019-04-20T06:14:28.597Z,38.40
2019-04-20T06:17:10.960Z,37.93
2019-04-20T06:19:46.668Z,35.73
2019-04-20T06:22:19.133Z,37.00
2019-04-20T06:25:01.662Z,38.07
2019-04-20T06:27:16.035Z,38.33
2019-04-20T06:29:49.785Z,34.60
2019-04-20T06:32:21.475Z,37.73
2019-04-20T06:34:41.581Z,37.77
2019-04-20T06:37:12.561Z,36.60
2019-04-20T06:39:47.480Z,37.90
2019-04-20T06:42:17.677Z,37.03
2019-04-20T06:44:46.334Z,36.83
2019-04-20T06:47:17.652Z,37.30
2019-04-20T06:49:48.647Z,36.47
2019-04-20T06:52:26.206Z,38.50
2019-04-20T06:54:48.322Z,36.47
2019-04-20T06:57:25.549Z,34.67
2019-04-20T06:59:55.066Z,36.63
2019-04-20T07:02:29.648Z,37.70
2019-04-20T07:05:02.519Z,36.83
2019-04-20T07:07:27.964Z,35.30
2019-04-20T07:09:59.853Z,36.67
2019-04-20T07:12:24.090Z,36.93
2019-04-20T07:14:47.457Z,39.13
2019-04-20T07:17:43.808Z,38.33
2019-04-20T07:23:09.773Z,36.27
2019-04-20T07:25:26.269Z,35.47
2019-04-20T07:27:58.289Z,37.87
2019-04-20T07:30:29.960Z,36.97
2019-04-20T07:33:04.106Z,37.30
2019-04-20T07:35:30.395Z,37.63
2019-04-20T07:38:21.307Z,36.97
2019-04-20T07:42:59.276Z,35.57
2019-04-20T07:45:42.386Z,37.20
2019-04-20T07:48:06.160Z,36.30
2019-04-20T07:50:25.116Z,34.57
2019-04-20T07:52:51.079Z,35.80
2019-04-20T07:55:42.224Z,34.23
2019-04-20T07:57:55.238Z,34.03
2019-04-20T08:00:41.540Z,31.83
2019-04-20T08:03:19.483Z,33.83
2019-04-20T08:05:40.619Z,34.90
2019-04-20T08:08:20.967Z,33.77
2019-04-20T08:10:38.364Z,34.27
2019-04-20T08:13:26.020Z,32.73
2019-04-20T08:18:27.804Z,30.93
2019-04-20T08:20:52.681Z,32.77
2019-04-20T08:23:23.266Z,32.10
2019-04-20T08:25:44.509Z,29.90
2019-04-20T08:28:06.468Z,28.73
2019-04-20T08:30:51.687Z,30.77
2019-04-20T08:33:30.902Z,31.93
2019-04-20T08:36:09.180Z,30.33
2019-04-20T08:40:58.370Z,32.20
2019-04-20T08:43:43.649Z,30.77
2019-04-20T08:46:06.579Z,31.57
2019-04-20T08:48:33.291Z,28.70
2019-04-20T08:51:05.716Z,30.17
2019-04-20T08:53:36.937Z,30.57
2019-04-20T08:55:55.303Z,29.27
2019-04-20T08:58:15.909Z,30.30
2019-04-20T09:00:49.991Z,30.03
2019-04-20T09:03:21.962Z,30.93
2019-04-20T09:05:57.010Z,29.67
2019-04-20T09:08:23.481Z,28.07
2019-04-20T09:11:05.641Z,29.50
2019-04-20T09:13:28.331Z,28.63
2019-04-20T09:15:47.684Z,27.30
2019-04-20T09:18:30.823Z,26.70
2019-04-20T09:21:01.267Z,27.03
2019-04-20T09:23:40.896Z,28.20
2019-04-20T09:26:14.970Z,28.07
2019-04-20T09:28:37.353Z,25.37
2019-04-20T09:31:18.460Z,26.03
2019-04-20T09:34:10.096Z,26.50
2019-04-20T09:36:40.794Z,27.13
2019-04-20T09:39:15.044Z,26.83
2019-04-20T09:41:59.713Z,25.83
2019-04-20T09:44:15.628Z,27.53
2019-04-20T09:46:50.053Z,26.70
2019-04-20T09:49:26.024Z,26.73
2019-04-20T09:52:03.951Z,26.23
2019-04-20T09:54:32.648Z,24.67
2019-04-20T09:57:09.371Z,26.50
2019-04-20T09:59:33.499Z,26.93
2019-04-20T10:01:54.682Z,25.57
2019-04-20T10:04:17.547Z,24.30
2019-04-20T10:06:47.538Z,24.60
2019-04-20T10:09:20.417Z,25.70
2019-04-20T10:11:47.623Z,23.93
2019-04-20T10:14:17.395Z,25.53
2019-04-20T10:16:47.354Z,25.70
2019-04-20T10:19:20.596Z,26.90
2019-04-20T10:21:46.562Z,26.13
2019-04-20T10:24:16.649Z,24.67
2019-04-20T10:26:45.660Z,27.30
2019-04-20T10:29:15.427Z,23.87
2019-04-20T10:31:52.326Z,25.00
2019-04-20T10:34:15.797Z,24.47
2019-04-20T10:36:46.319Z,22.37
2019-04-20T10:39:20.394Z,22.70
2019-04-20T10:41:54.283Z,21.80
2019-04-20T10:44:20.847Z,22.33
2019-04-20T10:46:51.077Z,21.67
2019-04-20T10:49:20.049Z,24.77
2019-04-20T10:51:49.556Z,23.83
2019-04-20T10:54:18.462Z,22.40
2019-04-20T10:56:47.772Z,22.27
2019-04-20T10:59:16.716Z,22.77
2019-04-20T11:01:45.776Z,21.47
2019-04-20T11:04:14.765Z,21.93
2019-04-20T11:06:44.818Z,20.97
2019-04-20T11:09:14.355Z,21.77
2019-04-20T11:11:44.141Z,21.73
2019-04-20T11:14:22.347Z,22.50
2019-04-20T11:16:44.482Z,23.33
2019-04-20T11:19:13.628Z,21.80
2019-04-20T11:21:44.017Z,24.37
2019-04-20T11:24:14.206Z,23.70
2019-04-20T11:26:43.916Z,23.57
2019-04-20T11:29:13.854Z,24.17
2019-04-20T11:31:47.722Z,23.60
2019-04-20T11:34:35.402Z,24.33
2019-04-20T11:37:03.384Z,23.97
2019-04-20T11:39:32.870Z,23.50
2019-04-20T11:42:01.698Z,23.60
2019-04-20T11:44:32.166Z,24.13
2019-04-20T11:47:00.920Z,22.53
2019-04-20T11:49:29.601Z,24.03
2019-04-20T11:51:59.458Z,23.57
2019-04-20T11:54:28.348Z,23.33
2019-04-20T11:56:57.384Z,21.93
2019-04-20T11:59:27.488Z,23.07
2019-04-20T12:02:05.883Z,23.20
2019-04-20T12:04:44.248Z,20.10
2019-04-20T12:07:06.865Z,19.33
2019-04-20T12:09:35.631Z,20.83
2019-04-20T12:12:17.867Z,19.50
2019-04-20T12:14:34.795Z,19.10
2019-04-20T12:17:04.107Z,18.30
2019-04-20T12:19:34.815Z,20.23
2019-04-20T12:22:03.560Z,19.27
2019-04-20T12:24:33.208Z,19.70
2019-04-20T12:27:02.901Z,18.87
2019-04-20T12:29:32.075Z,18.80
2019-04-20T12:32:02.293Z,19.10
2019-04-20T12:34:31.554Z,18.20
2019-04-20T12:37:00.768Z,18.87
2019-04-20T12:39:29.539Z,17.47
2019-04-20T12:42:02.143Z,17.73
2019-04-20T12:44:29.758Z,17.17
2019-04-20T12:46:59.688Z,17.57
2019-04-20T12:49:29.578Z,16.70
2019-04-20T12:52:02.742Z,19.80
2019-04-20T12:54:29.066Z,18.80
2019-04-20T12:56:58.605Z,18.47
2019-04-20T12:59:27.633Z,19.13
2019-04-20T13:01:57.482Z,20.23
2019-04-20T13:04:26.823Z,17.53
2019-04-20T13:06:57.489Z,17.70
2019-04-20T13:09:30.620Z,18.83
2019-04-20T13:12:08.129Z,17.60
2019-04-20T13:15:00.286Z,15.90
2019-04-20T13:17:30.362Z,18.20
2019-04-20T13:19:59.531Z,16.17
2019-04-20T13:22:28.739Z,17.93
2019-04-20T13:24:58.881Z,16.80
2019-04-20T13:27:29.093Z,17.63
2019-04-20T13:29:58.530Z,16.73
2019-04-20T13:32:27.689Z,16.07
2019-04-20T13:34:56.401Z,16.40
2019-04-20T13:37:26.078Z,16.63
2019-04-20T13:39:56.578Z,16.50
2019-04-20T13:42:29.484Z,14.53
2019-04-20T13:44:57.024Z,14.47
2019-04-20T13:47:28.103Z,15.50
2019-04-20T13:49:56.859Z,15.83
2019-04-20T13:52:26.823Z,15.28
2019-04-20T13:54:55.890Z,14.57
2019-04-20T13:57:26.618Z,16.60
2019-04-20T13:59:58.364Z,14.20
2019-04-20T14:02:31.399Z,14.93
2019-04-20T14:05:02.751Z,15.67
2019-04-20T14:07:33.743Z,13.67
2019-04-20T14:10:03.617Z,12.85
2019-04-20T14:12:37.556Z,12.82
2019-04-20T14:15:03.021Z,14.07
2019-04-20T14:17:32.776Z,13.40
2019-04-20T14:20:07.378Z,13.75
2019-04-20T14:22:33.342Z,14.10
2019-04-20T14:25:02.990Z,12.45
2019-04-20T14:27:32.950Z,14.20
2019-04-20T14:30:01.783Z,12.55
2019-04-20T14:32:38.894Z,14.28
2019-04-20T14:35:09.180Z,13.22
2019-04-20T14:37:46.232Z,13.25
2019-04-20T14:40:16.649Z,13.25
2019-04-20T14:42:49.968Z,11.88
2019-04-20T14:45:16.463Z,13.58
2019-04-20T14:47:45.833Z,12.28
2019-04-20T14:50:15.942Z,12.07
2019-04-20T14:52:44.745Z,11.40
2019-04-20T14:55:16.946Z,11.83
2019-04-20T14:57:44.067Z,11.80
2019-04-20T15:00:35.369Z,11.75
2019-04-20T15:03:10.076Z,11.25
2019-04-20T15:05:41.727Z,12.33
2019-04-20T15:08:10.382Z,12.60
2019-04-20T15:10:39.094Z,12.55
2019-04-20T15:13:09.611Z,11.83
2019-04-20T15:15:38.779Z,12.35
2019-04-20T15:18:13.380Z,11.65
2019-04-20T15:20:43.866Z,10.98
2019-04-20T15:23:15.180Z,10.68
2019-04-20T15:25:44.485Z,11.43
2019-04-20T15:28:14.446Z,12.15
2019-04-20T15:30:44.424Z,14.07
2019-04-20T15:33:14.636Z,10.35
2019-04-20T15:35:44.152Z,12.05
2019-04-20T15:38:13.295Z,18.73
2019-04-20T15:40:42.067Z,11.22
2019-04-20T15:43:16.810Z,11.05
2019-04-20T15:45:41.517Z,10.15
2019-04-20T15:48:10.168Z,11.12
2019-04-20T15:50:39.978Z,11.43
2019-04-20T15:53:09.198Z,10.85
2019-04-20T15:55:40.192Z,11.63
2019-04-20T15:58:08.463Z,10.88
2019-04-20T16:00:38.358Z,11.83
2019-04-20T16:03:11.503Z,10.50
2019-04-20T16:05:42.961Z,10.75
2019-04-20T16:08:16.300Z,10.40
2019-04-20T16:10:45.440Z,11.25
2019-04-20T16:13:23.361Z,10.55
2019-04-20T16:15:45.546Z,10.28
2019-04-20T16:18:14.783Z,9.80
2019-04-20T16:20:55.008Z,10.20
2019-04-20T16:23:14.509Z,10.15
2019-04-20T16:25:45.743Z,8.80
2019-04-20T16:28:14.583Z,9.85
2019-04-20T16:30:43.506Z,9.95
2019-04-20T16:33:12.476Z,9.18
2019-04-20T16:35:42.488Z,10.72
2019-04-20T16:38:11.300Z,10.78
2019-04-20T16:40:40.067Z,10.72
2019-04-20T16:43:17.742Z,11.55
2019-04-20T16:45:39.250Z,9.75
2019-04-20T16:48:08.458Z,11.50
2019-04-20T16:50:37.315Z,10.83
2019-04-20T16:53:06.633Z,10.83
2019-04-20T16:55:36.854Z,11.77
2019-04-20T16:58:06.018Z,11.87
2019-04-20T17:00:35.744Z,11.17
2019-04-20T17:03:04.853Z,11.33
2019-04-20T17:05:34.907Z,11.00
2019-04-20T17:08:04.819Z,10.50
2019-04-20T17:10:34.897Z,10.47
2019-04-20T17:13:04.131Z,10.50
2019-04-20T17:15:33.858Z,12.68
2019-04-20T17:18:03.462Z,11.28
2019-04-20T17:20:32.723Z,10.20
2019-04-20T17:23:03.884Z,10.67
2019-04-20T17:25:32.313Z,10.43
2019-04-20T17:28:20.932Z,10.27
2019-04-20T17:31:13.401Z,9.20
2019-04-20T17:33:58.472Z,10.93
2019-04-20T17:36:21.582Z,13.83
2019-04-20T17:38:54.185Z,12.43
2019-04-20T17:41:41.453Z,11.97
2019-04-20T17:44:07.176Z,14.03
2019-04-20T17:46:32.385Z,12.43
2019-04-20T17:49:07.535Z,12.87
2019-04-20T17:51:41.412Z,11.50
2019-04-20T17:54:05.293Z,11.67
2019-04-20T17:56:33.949Z,11.93
2019-04-20T17:59:04.033Z,15.97
2019-04-20T18:01:49.795Z,14.23
2019-04-20T18:04:41.810Z,15.90
2019-04-20T18:06:53.713Z,16.23
2019-04-20T18:09:34.512Z,18.10
2019-04-20T18:11:47.327Z,17.03
2019-04-20T18:14:35.790Z,17.37
2019-04-20T18:17:05.891Z,17.43
2019-04-20T18:19:29.896Z,17.97
2019-04-20T18:21:59.238Z,18.27
2019-04-20T18:24:49.000Z,17.03
2019-04-20T18:27:14.206Z,17.23
2019-04-20T18:29:45.557Z,17.77
2019-04-20T18:32:17.553Z,17.27
2019-04-20T18:34:52.973Z,17.60
2019-04-20T18:37:21.385Z,16.20
2019-04-20T18:39:57.351Z,17.60
2019-04-20T18:42:26.878Z,16.97
2019-04-20T18:45:08.954Z,19.00
2019-04-20T18:47:40.568Z,18.17
2019-04-20T18:50:01.139Z,19.20
2019-04-20T18:52:21.868Z,17.10
2019-04-20T18:54:53.638Z,17.50
2019-04-20T18:57:27.256Z,17.83
2019-04-20T18:59:54.619Z,17.33
2019-04-20T19:02:27.006Z,18.37
2019-04-20T19:04:53.893Z,18.90
2019-04-20T19:07:23.666Z,17.47
2019-04-20T19:10:00.332Z,17.80
2019-04-20T19:12:34.445Z,17.90
2019-04-20T19:15:12.100Z,17.40
2019-04-20T19:17:41.886Z,17.37
2019-04-20T19:20:08.611Z,17.27
2019-04-20T19:22:38.554Z,15.70
2019-04-20T19:25:09.964Z,17.17
2019-04-20T19:27:46.307Z,16.40
2019-04-20T19:30:21.172Z,15.60
2019-04-20T19:33:02.146Z,17.80
2019-04-20T19:35:25.813Z,17.37
2019-04-20T19:37:56.297Z,17.33
2019-04-20T19:40:29.030Z,16.57
2019-04-20T19:43:01.249Z,15.27
2019-04-20T19:45:44.875Z,16.20
2019-04-20T19:48:04.719Z,15.83
2019-04-20T19:51:05.904Z,15.00
2019-04-20T19:53:32.187Z,15.37
2019-04-20T19:55:52.671Z,15.67
2019-04-20T19:58:25.373Z,16.27
2019-04-20T20:00:51.767Z,16.40
2019-04-20T20:03:19.865Z,15.50
2019-04-20T20:05:51.813Z,15.73
2019-04-20T20:08:23.932Z,15.47
2019-04-20T20:10:50.586Z,16.60
2019-04-20T20:13:27.626Z,15.23
2019-04-20T20:16:04.468Z,15.97
2019-04-20T20:18:41.330Z,17.80
2019-04-20T20:21:07.328Z,21.00
2019-04-20T20:23:25.822Z,25.73
2019-04-20T20:25:58.954Z,26.40
2019-04-20T20:28:37.885Z,27.03
2019-04-20T20:31:09.698Z,29.87
2019-04-20T20:33:43.912Z,32.03
2019-04-20T20:36:07.280Z,32.93
2019-04-20T20:38:37.068Z,34.87
2019-04-20T20:41:10.593Z,34.97
2019-04-20T20:43:46.972Z,32.23
2019-04-20T20:46:16.219Z,30.63
2019-04-20T20:48:54.209Z,30.73
2019-04-20T20:51:23.291Z,27.33
2019-04-20T20:53:49.830Z,24.97
2019-04-20T20:56:10.755Z,26.13
2019-04-20T20:58:48.622Z,24.47
2019-04-20T21:01:10.675Z,26.37
2019-04-20T21:03:40.423Z,31.27
2019-04-20T21:06:05.588Z,35.83
2019-04-20T21:08:38.318Z,33.13
2019-04-20T21:11:13.092Z,29.07
2019-04-20T21:13:40.186Z,27.87
2019-04-20T21:16:14.660Z,28.60
2019-04-20T21:18:50.275Z,30.33
2019-04-20T21:21:21.927Z,30.03
2019-04-20T21:23:48.002Z,29.33
2019-04-20T21:26:18.049Z,26.33
2019-04-20T21:28:42.038Z,24.40
2019-04-20T21:31:14.667Z,24.50
2019-04-20T21:33:42.902Z,22.40
2019-04-20T21:36:13.519Z,20.37
2019-04-20T21:38:44.319Z,19.67
2019-04-20T21:41:16.450Z,21.63
2019-04-20T21:43:44.613Z,20.60
2019-04-20T21:46:14.015Z,19.40
2019-04-20T21:48:57.148Z,20.77
2019-04-20T21:51:29.386Z,20.73
2019-04-20T21:53:44.495Z,19.17
2019-04-20T21:56:13.281Z,19.13
2019-04-20T21:58:49.419Z,19.47
2019-04-20T22:01:22.175Z,19.97
2019-04-20T22:03:44.822Z,19.87
2019-04-20T22:06:16.147Z,18.53
2019-04-20T22:08:51.877Z,20.07
2019-04-20T22:11:15.793Z,18.97
2019-04-20T22:13:47.406Z,19.50
2019-04-20T22:16:18.162Z,20.23
2019-04-20T22:18:52.966Z,19.43
2019-04-20T22:21:25.056Z,19.53
2019-04-20T22:24:04.235Z,19.60
2019-04-20T22:26:29.681Z,17.93
2019-04-20T22:28:47.936Z,17.73
2019-04-20T22:31:18.473Z,18.17
2019-04-20T22:33:48.698Z,17.27
2019-04-20T22:36:18.208Z,18.07
2019-04-20T22:39:07.412Z,18.97
2019-04-20T22:41:38.729Z,16.77
2019-04-20T22:44:13.619Z,16.53
2019-04-20T22:46:40.868Z,17.23
2019-04-20T22:49:29.435Z,17.40
2019-04-20T22:51:50.788Z,16.40
2019-04-20T22:54:44.671Z,18.37
2019-04-20T22:57:11.811Z,16.93
2019-04-20T22:59:38.358Z,17.70
2019-04-20T23:02:03.964Z,18.43
2019-04-20T23:04:33.106Z,18.87
2019-04-20T23:07:02.998Z,19.00
2019-04-20T23:09:34.129Z,19.17
2019-04-20T23:12:09.131Z,21.33
2019-04-20T23:14:34.207Z,20.67
2019-04-20T23:17:04.288Z,20.73
2019-04-20T23:19:40.441Z,22.30
2019-04-20T23:22:27.705Z,22.47
2019-04-20T23:24:55.179Z,23.67
2019-04-20T23:27:31.255Z,25.50
2019-04-20T23:29:58.553Z,23.80
2019-04-20T23:32:30.054Z,23.30
2019-04-20T23:35:05.940Z,23.00
2019-04-20T23:37:32.124Z,21.87
2019-04-20T23:39:58.463Z,19.73
2019-04-20T23:42:34.904Z,20.13
2019-04-20T23:45:17.045Z,20.07
2019-04-20T23:47:55.242Z,20.70
2019-04-20T23:50:37.208Z,21.67
2019-04-20T23:53:06.728Z,21.27
2019-04-20T23:55:19.080Z,20.80
2019-04-20T23:57:54.690Z,22.00
